メインページ
METAR-TAF:

METAR-TAF

空港 :

ルクセンブルク, ルクセンブルク

ルクセンブルク-フィンデル空港

緯度: 49-37N, 経度: 006-13E, 海抜: 376m

現時点の気象観測

当レポートは35分前の05:50(UTC)に作成
西/南西の風 22kt、最大36ktの突風を伴う
気温 3°C
湿度 81%
気圧 997 hPa
視程10km以上
高度1700ftの雲は散在している
高度2300ftの千切れ雲あり

METAR: ELLX 140550Z 25022G36KT 9999 SCT017 BKN023 03/00 Q0997 TEMPO 25025G35KT BECMG 2500 SHRASN BKN010CB

時間: 07:25 (06:25 UTC)

予報

当レポートは1時間25分前の05:00(UTC)に作成
予報は14日の 06時(UTC)から 15日の 12時(UTC)まで有効
西/南西の風 20kt、最大35ktの突風を伴う
視程10km以上
高度1500ftの雲は散在している
高度2500ftの千切れ雲あり
14日の 06時(UTC)から 14日の 23時(UTC)まで一時的に
西/南西の風 25kt、最大40ktの突風を伴う
視程: 2500m
にわか雨, にわか雨, 雪
確率 40%
14日の 09時(UTC)から 14日の 12時(UTC)まで
激しい雷雨, 氷霰/雪霰, 激しい雷雨, 雨
確率 40%
14日の 16時(UTC)から 14日の 22時(UTC)まで
高度1000ftの千切れ雲あり, 積乱雲.
激しい雷雨, 氷霰/雪霰, 激しい雷雨, 雨
14日の 22時(UTC)から 14日の 24時(UTC)まで徐々に
南西の風 15kt、最大25ktの突風を伴う
15日の 00時(UTC)から 15日の 12時(UTC)まで一時的に
高度1500ftの雲は散在している, 塔状積雲.

TAF: ELLX 140500Z 1406/1512 24020G35KT 9999 SCT015 BKN025 TEMPO 1406/1423 25025G40KT 2500 SHRA SHRASN PROB40 1409/1412 TSGS TSRA PROB40 1416/1422 TSGS TSRA BKN010CB BECMG 1422/1424 22015G25KT TEMPO 1500/1512 SCT015TCU

4,000以上の空港の気象観測と天気予報(METAR報とTAF報)

利用可能な観測所は地図上に黄色い丸と赤い丸で示す。

丸の上にカーソルを重ねると観測所名を参照できる。

次にクリックすると気象観測と天気予報を参照できる。

マップの切り替え:黒色「×」印の緑ボタンをクリックして拡大、「-」印の緑ボタンをクリックして縮小、緑色の三角印をクリックして隣りの地図に切り替え


METAR-TAF: